sensor_id;sensor_type;location;lat;lon;timestamp;pressure;altitude;pressure_sealevel;temperature;humidity
24486;BME280;13449;49.374;8.584;2023-02-16T00:00:59;101665.28;;;-0.76;100.00
24486;BME280;13449;49.374;8.584;2023-02-16T00:03:26;101674.34;;;-0.79;100.00
24486;BME280;13449;49.374;8.584;2023-02-16T00:05:52;101694.22;;;-0.83;100.00
24486;BME280;13449;49.374;8.584;2023-02-16T00:08:19;101687.97;;;-0.83;100.00
24486;BME280;13449;49.374;8.584;2023-02-16T00:10:45;101680.91;;;-0.84;100.00
24486;BME280;13449;49.374;8.584;2023-02-16T00:13:31;101680.97;;;-0.86;100.00
24486;BME280;13449;49.374;8.584;2023-02-16T00:16:18;101676.66;;;-0.88;100.00
24486;BME280;13449;49.374;8.584;2023-02-16T00:18:45;101682.81;;;-0.86;100.00
24486;BME280;13449;49.374;8.584;2023-02-16T00:21:12;101678.47;;;-0.89;100.00
24486;BME280;13449;49.374;8.584;2023-02-16T00:23:39;101680.38;;;-0.91;100.00
24486;BME280;13449;49.374;8.584;2023-02-16T00:26:16;101683.03;;;-0.91;100.00
24486;BME280;13449;49.374;8.584;2023-02-16T00:28:49;101685.78;;;-0.92;100.00
24486;BME280;13449;49.374;8.584;2023-02-16T00:31:25;101674.16;;;-0.91;100.00
24486;BME280;13449;49.374;8.584;2023-02-16T00:33:54;101673.44;;;-0.95;100.00
24486;BME280;13449;49.374;8.584;2023-02-16T00:36:20;101666.47;;;-0.98;100.00
24486;BME280;13449;49.374;8.584;2023-02-16T00:38:47;101672.75;;;-0.99;100.00
24486;BME280;13449;49.374;8.584;2023-02-16T00:41:21;101678.28;;;-1.02;100.00
24486;BME280;13449;49.374;8.584;2023-02-16T00:44:15;101678.41;;;-1.05;100.00
24486;BME280;13449;49.374;8.584;2023-02-16T00:46:46;101685.00;;;-1.10;100.00
24486;BME280;13449;49.374;8.584;2023-02-16T00:49:19;101686.03;;;-1.13;100.00
24486;BME280;13449;49.374;8.584;2023-02-16T00:51:46;101684.28;;;-1.14;100.00
24486;BME280;13449;49.374;8.584;2023-02-16T00:54:13;101685.00;;;-1.10;100.00
24486;BME280;13449;49.374;8.584;2023-02-16T00:56:40;101693.09;;;-1.12;100.00
24486;BME280;13449;49.374;8.584;2023-02-16T00:59:15;101703.78;;;-1.12;100.00
24486;BME280;13449;49.374;8.584;2023-02-16T01:01:43;101701.28;;;-1.15;100.00
24486;BME280;13449;49.374;8.584;2023-02-16T01:04:18;101698.53;;;-1.13;100.00
24486;BME280;13449;49.374;8.584;2023-02-16T01:06:47;101688.78;;;-1.14;100.00
24486;BME280;13449;49.374;8.584;2023-02-16T01:09:33;101689.81;;;-1.17;100.00
24486;BME280;13449;49.374;8.584;2023-02-16T01:12:19;101699.47;;;-1.14;100.00
24486;BME280;13449;49.374;8.584;2023-02-16T01:14:50;101685.16;;;-1.13;100.00
24486;BME280;13449;49.374;8.584;2023-02-16T01:17:23;101696.72;;;-1.13;100.00
24486;BME280;13449;49.374;8.584;2023-02-16T01:19:52;101691.50;;;-1.16;100.00
24486;BME280;13449;49.374;8.584;2023-02-16T01:22:19;101684.59;;;-1.20;100.00
24486;BME280;13449;49.374;8.584;2023-02-16T01:24:47;101681.91;;;-1.20;100.00
24486;BME280;13449;49.374;8.584;2023-02-16T01:27:14;101689.94;;;-1.20;100.00
24486;BME280;13449;49.374;8.584;2023-02-16T01:29:40;101682.88;;;-1.21;100.00
24486;BME280;13449;49.374;8.584;2023-02-16T01:32:10;101688.41;;;-1.24;100.00
24486;BME280;13449;49.374;8.584;2023-02-16T01:34:37;101690.34;;;-1.27;100.00
24486;BME280;13449;49.374;8.584;2023-02-16T01:37:04;101693.03;;;-1.27;100.00
24486;BME280;13449;49.374;8.584;2023-02-16T01:39:31;101696.56;;;-1.27;100.00
24486;BME280;13449;49.374;8.584;2023-02-16T01:45:29;101691.31;;;-1.28;100.00
24486;BME280;13449;49.374;8.584;2023-02-16T01:48:02;101684.47;;;-1.34;100.00
24486;BME280;13449;49.374;8.584;2023-02-16T01:50:42;101683.47;;;-1.31;100.00
24486;BME280;13449;49.374;8.584;2023-02-16T01:55:47;101676.53;;;-1.35;100.00
24486;BME280;13449;49.374;8.584;2023-02-16T02:03:32;101688.25;;;-1.38;100.00
24486;BME280;13449;49.374;8.584;2023-02-16T02:06:32;101685.56;;;-1.38;100.00
24486;BME280;13449;49.374;8.584;2023-02-16T02:09:11;101666.69;;;-1.35;100.00
24486;BME280;13449;49.374;8.584;2023-02-16T02:11:49;101673.88;;;-1.35;100.00
24486;BME280;13449;49.374;8.584;2023-02-16T02:14:31;101671.25;;;-1.37;100.00
24486;BME280;13449;49.374;8.584;2023-02-16T02:17:05;101658.75;;;-1.36;100.00
24486;BME280;13449;49.374;8.584;2023-02-16T02:19:42;101662.13;;;-1.33;100.00
24486;BME280;13449;49.374;8.584;2023-02-16T02:36:59;101646.03;;;-1.16;100.00
24486;BME280;13449;49.374;8.584;2023-02-16T02:45:16;101642.25;;;-1.12;100.00
24486;BME280;13449;49.374;8.584;2023-02-16T02:47:46;101643.09;;;-1.11;100.00
24486;BME280;13449;49.374;8.584;2023-02-16T02:50:42;101644.75;;;-1.09;100.00
24486;BME280;13449;49.374;8.584;2023-02-16T02:53:30;101648.03;;;-1.04;100.00
24486;BME280;13449;49.374;8.584;2023-02-16T02:55:58;101648.03;;;-1.04;100.00
24486;BME280;13449;49.374;8.584;2023-02-16T02:58:49;101633.56;;;-1.00;100.00
24486;BME280;13449;49.374;8.584;2023-02-16T03:01:37;101631.66;;;-0.98;100.00
24486;BME280;13449;49.374;8.584;2023-02-16T03:04:07;101637.72;;;-0.94;100.00
24486;BME280;13449;49.374;8.584;2023-02-16T03:06:43;101637.78;;;-0.95;100.00
24486;BME280;13449;49.374;8.584;2023-02-16T03:09:13;101625.97;;;-0.91;100.00
24486;BME280;13449;49.374;8.584;2023-02-16T03:11:44;101632.19;;;-0.91;100.00
24486;BME280;13449;49.374;8.584;2023-02-16T03:14:34;101637.38;;;-0.88;100.00
24486;BME280;13449;49.374;8.584;2023-02-16T03:17:09;101636.31;;;-0.85;100.00
24486;BME280;13449;49.374;8.584;2023-02-16T03:19:55;101640.66;;;-0.83;100.00
24486;BME280;13449;49.374;8.584;2023-02-16T03:22:43;101636.16;;;-0.82;100.00
24486;BME280;13449;49.374;8.584;2023-02-16T03:25:33;101632.47;;;-0.80;100.00
24486;BME280;13449;49.374;8.584;2023-02-16T03:28:22;101638.50;;;-0.76;100.00
24486;BME280;13449;49.374;8.584;2023-02-16T03:31:26;101638.41;;;-0.75;100.00
24486;BME280;13449;49.374;8.584;2023-02-16T03:33:57;101633.91;;;-0.74;100.00
24486;BME280;13449;49.374;8.584;2023-02-16T03:36:26;101633.75;;;-0.71;100.00
24486;BME280;13449;49.374;8.584;2023-02-16T03:38:55;101642.38;;;-0.66;100.00
24486;BME280;13449;49.374;8.584;2023-02-16T03:41:23;101634.59;;;-0.71;100.00
24486;BME280;13449;49.374;8.584;2023-02-16T03:43:50;101627.25;;;-0.67;100.00
24486;BME280;13449;49.374;8.584;2023-02-16T03:46:17;101639.81;;;-0.68;100.00
24486;BME280;13449;49.374;8.584;2023-02-16T03:48:43;101648.69;;;-0.67;100.00
24486;BME280;13449;49.374;8.584;2023-02-16T03:51:10;101647.75;;;-0.66;100.00
24486;BME280;13449;49.374;8.584;2023-02-16T03:53:36;101644.88;;;-0.63;100.00
24486;BME280;13449;49.374;8.584;2023-02-16T03:56:03;101639.53;;;-0.63;100.00
24486;BME280;13449;49.374;8.584;2023-02-16T03:58:29;101648.53;;;-0.64;100.00
24486;BME280;13449;49.374;8.584;2023-02-16T04:00:58;101644.00;;;-0.64;100.00
24486;BME280;13449;49.374;8.584;2023-02-16T04:03:25;101639.19;;;-0.57;100.00
24486;BME280;13449;49.374;8.584;2023-02-16T04:05:52;101647.94;;;-0.54;100.00
24486;BME280;13449;49.374;8.584;2023-02-16T04:08:21;101647.25;;;-0.57;100.00
24486;BME280;13449;49.374;8.584;2023-02-16T04:10:48;101656.03;;;-0.55;100.00
24486;BME280;13449;49.374;8.584;2023-02-16T04:13:14;101652.59;;;-0.57;100.00
24486;BME280;13449;49.374;8.584;2023-02-16T04:15:43;101636.53;;;-0.57;100.00
24486;BME280;13449;49.374;8.584;2023-02-16T04:18:09;101638.09;;;-0.53;100.00
24486;BME280;13449;49.374;8.584;2023-02-16T04:20:36;101636.16;;;-0.51;100.00
24486;BME280;13449;49.374;8.584;2023-02-16T04:23:05;101645.94;;;-0.50;100.00
24486;BME280;13449;49.374;8.584;2023-02-16T04:25:32;101645.75;;;-0.47;100.00
24486;BME280;13449;49.374;8.584;2023-02-16T04:28:01;101647.50;;;-0.46;100.00
24486;BME280;13449;49.374;8.584;2023-02-16T04:30:29;101643.94;;;-0.46;100.00
24486;BME280;13449;49.374;8.584;2023-02-16T04:32:56;101653.59;;;-0.44;100.00
24486;BME280;13449;49.374;8.584;2023-02-16T04:35:24;101649.47;;;-0.50;100.00
24486;BME280;13449;49.374;8.584;2023-02-16T04:37:51;101660.97;;;-0.47;100.00
24486;BME280;13449;49.374;8.584;2023-02-16T04:40:20;101659.06;;;-0.45;100.00
24486;BME280;13449;49.374;8.584;2023-02-16T04:42:49;101652.75;;;-0.44;100.00
24486;BME280;13449;49.374;8.584;2023-02-16T04:45:16;101651.72;;;-0.42;100.00
24486;BME280;13449;49.374;8.584;2023-02-16T04:47:42;101641.16;;;-0.45;100.00
24486;BME280;13449;49.374;8.584;2023-02-16T04:50:11;101645.13;;;-0.52;100.00
24486;BME280;13449;49.374;8.584;2023-02-16T04:52:38;101652.34;;;-0.53;100.00
24486;BME280;13449;49.374;8.584;2023-02-16T04:55:06;101649.19;;;-0.45;100.00
24486;BME280;13449;49.374;8.584;2023-02-16T04:57:38;101648.06;;;-0.41;100.00
24486;BME280;13449;49.374;8.584;2023-02-16T05:00:09;101643.84;;;-0.45;100.00
24486;BME280;13449;49.374;8.584;2023-02-16T05:02:36;101635.97;;;-0.48;100.00
24486;BME280;13449;49.374;8.584;2023-02-16T05:05:03;101640.41;;;-0.47;100.00
24486;BME280;13449;49.374;8.584;2023-02-16T05:07:32;101643.25;;;-0.50;100.00
24486;BME280;13449;49.374;8.584;2023-02-16T05:09:58;101643.16;;;-0.49;100.00
24486;BME280;13449;49.374;8.584;2023-02-16T05:12:25;101640.22;;;-0.44;100.00
24486;BME280;13449;49.374;8.584;2023-02-16T05:15:10;101650.06;;;-0.44;100.00
24486;BME280;13449;49.374;8.584;2023-02-16T05:17:38;101650.94;;;-0.44;100.00
24486;BME280;13449;49.374;8.584;2023-02-16T05:20:05;101646.44;;;-0.43;100.00
24486;BME280;13449;49.374;8.584;2023-02-16T05:22:32;101646.38;;;-0.42;100.00
24486;BME280;13449;49.374;8.584;2023-02-16T05:25:00;101640.81;;;-0.39;100.00
24486;BME280;13449;49.374;8.584;2023-02-16T05:27:29;101646.38;;;-0.42;100.00
24486;BME280;13449;49.374;8.584;2023-02-16T05:29:56;101646.94;;;-0.37;100.00
24486;BME280;13449;49.374;8.584;2023-02-16T05:32:23;101650.31;;;-0.33;100.00
24486;BME280;13449;49.374;8.584;2023-02-16T05:34:53;101647.75;;;-0.35;100.00
24486;BME280;13449;49.374;8.584;2023-02-16T05:37:19;101642.19;;;-0.32;100.00
24486;BME280;13449;49.374;8.584;2023-02-16T05:39:46;101640.47;;;-0.33;100.00
24486;BME280;13449;49.374;8.584;2023-02-16T05:42:13;101643.69;;;-0.26;100.00
24486;BME280;13449;49.374;8.584;2023-02-16T05:44:39;101648.00;;;-0.24;100.00
24486;BME280;13449;49.374;8.584;2023-02-16T05:47:08;101641.84;;;-0.26;100.00
24486;BME280;13449;49.374;8.584;2023-02-16T05:49:37;101655.16;;;-0.24;100.00
24486;BME280;13449;49.374;8.584;2023-02-16T05:52:03;101650.75;;;-0.25;100.00
24486;BME280;13449;49.374;8.584;2023-02-16T05:54:30;101660.50;;;-0.24;100.00
24486;BME280;13449;49.374;8.584;2023-02-16T05:56:59;101661.28;;;-0.22;100.00
24486;BME280;13449;49.374;8.584;2023-02-16T05:59:25;101657.75;;;-0.23;100.00
24486;BME280;13449;49.374;8.584;2023-02-16T06:01:54;101661.38;;;-0.24;100.00
24486;BME280;13449;49.374;8.584;2023-02-16T06:04:23;101656.91;;;-0.23;100.00
24486;BME280;13449;49.374;8.584;2023-02-16T06:06:49;101663.97;;;-0.22;100.00
24486;BME280;13449;49.374;8.584;2023-02-16T06:09:16;101661.28;;;-0.22;100.00
24486;BME280;13449;49.374;8.584;2023-02-16T06:11:42;101660.06;;;-0.17;100.00
24486;BME280;13449;49.374;8.584;2023-02-16T06:14:19;101658.44;;;-0.19;100.00
24486;BME280;13449;49.374;8.584;2023-02-16T06:16:48;101659.28;;;-0.19;100.00
24486;BME280;13449;49.374;8.584;2023-02-16T06:19:16;101663.81;;;-0.19;100.00
24486;BME280;13449;49.374;8.584;2023-02-16T06:21:43;101662.69;;;-0.15;100.00
24486;BME280;13449;49.374;8.584;2023-02-16T06:24:11;101664.31;;;-0.13;100.00
24486;BME280;13449;49.374;8.584;2023-02-16T06:26:38;101671.75;;;-0.18;100.00
24486;BME280;13449;49.374;8.584;2023-02-16T06:29:05;101677.03;;;-0.16;100.00
24486;BME280;13449;49.374;8.584;2023-02-16T06:31:34;101673.47;;;-0.17;100.00
24486;BME280;13449;49.374;8.584;2023-02-16T06:34:04;101675.97;;;-0.14;100.00
24486;BME280;13449;49.374;8.584;2023-02-16T06:36:31;101676.91;;;-0.15;100.00
24486;BME280;13449;49.374;8.584;2023-02-16T06:39:00;101679.72;;;-0.16;100.00
24486;BME280;13449;49.374;8.584;2023-02-16T06:41:27;101682.38;;;-0.16;100.00
24486;BME280;13449;49.374;8.584;2023-02-16T06:44:09;101676.09;;;-0.15;100.00
24486;BME280;13449;49.374;8.584;2023-02-16T06:46:38;101682.28;;;-0.15;100.00
24486;BME280;13449;49.374;8.584;2023-02-16T06:49:05;101671.56;;;-0.15;100.00
24486;BME280;13449;49.374;8.584;2023-02-16T06:51:32;101683.16;;;-0.14;100.00
24486;BME280;13449;49.374;8.584;2023-02-16T06:53:59;101682.28;;;-0.15;100.00
24486;BME280;13449;49.374;8.584;2023-02-16T06:56:25;101673.28;;;-0.14;100.00
24486;BME280;13449;49.374;8.584;2023-02-16T06:58:52;101685.75;;;-0.13;100.00
24486;BME280;13449;49.374;8.584;2023-02-16T07:01:18;101696.38;;;-0.11;100.00
24486;BME280;13449;49.374;8.584;2023-02-16T07:03:49;101694.56;;;-0.11;100.00
24486;BME280;13449;49.374;8.584;2023-02-16T07:06:16;101700.09;;;-0.14;100.00
24486;BME280;13449;49.374;8.584;2023-02-16T07:08:43;101693.69;;;-0.11;100.00
24486;BME280;13449;49.374;8.584;2023-02-16T07:11:11;101691.72;;;-0.08;100.00
24486;BME280;13449;49.374;8.584;2023-02-16T07:13:37;101692.56;;;-0.07;100.00
24486;BME280;13449;49.374;8.584;2023-02-16T07:16:05;101695.25;;;-0.07;100.00
24486;BME280;13449;49.374;8.584;2023-02-16T07:18:33;101702.06;;;-0.02;100.00
24486;BME280;13449;49.374;8.584;2023-02-16T07:21:00;101704.38;;;0.05;100.00
24486;BME280;13449;49.374;8.584;2023-02-16T07:23:29;101706.13;;;0.06;100.00
24486;BME280;13449;49.374;8.584;2023-02-16T07:25:55;101708.81;;;0.06;100.00
24486;BME280;13449;49.374;8.584;2023-02-16T07:28:22;101703.63;;;0.03;100.00
24486;BME280;13449;49.374;8.584;2023-02-16T07:30:49;101703.38;;;0.07;100.00
24486;BME280;13449;49.374;8.584;2023-02-16T07:33:21;101700.56;;;0.09;100.00
24486;BME280;13449;49.374;8.584;2023-02-16T07:35:48;101711.13;;;0.12;100.00
24486;BME280;13449;49.374;8.584;2023-02-16T07:38:15;101711.66;;;0.18;100.00
24486;BME280;13449;49.374;8.584;2023-02-16T07:40:42;101711.53;;;0.20;100.00
24486;BME280;13449;49.374;8.584;2023-02-16T07:43:08;101708.38;;;0.13;100.00
24486;BME280;13449;49.374;8.584;2023-02-16T07:45:35;101706.38;;;0.17;100.00
24486;BME280;13449;49.374;8.584;2023-02-16T07:48:06;101705.41;;;0.18;100.00
24486;BME280;13449;49.374;8.584;2023-02-16T07:50:33;101702.81;;;0.16;100.00
24486;BME280;13449;49.374;8.584;2023-02-16T07:53:01;101698.94;;;0.22;100.00
24486;BME280;13449;49.374;8.584;2023-02-16T07:55:28;101702.03;;;0.30;100.00
24486;BME280;13449;49.374;8.584;2023-02-16T07:57:56;101707.19;;;0.33;100.00
24486;BME280;13449;49.374;8.584;2023-02-16T08:00:25;101698.19;;;0.34;100.00
24486;BME280;13449;49.374;8.584;2023-02-16T08:02:52;101700.69;;;0.37;100.00
24486;BME280;13449;49.374;8.584;2023-02-16T08:05:19;101706.38;;;0.46;100.00
24486;BME280;13449;49.374;8.584;2023-02-16T08:07:45;101698.44;;;0.45;100.00
24486;BME280;13449;49.374;8.584;2023-02-16T08:10:13;101700.94;;;0.48;100.00
24486;BME280;13449;49.374;8.584;2023-02-16T08:12:39;101699.59;;;0.55;100.00
24486;BME280;13449;49.374;8.584;2023-02-16T08:15:06;101708.41;;;0.57;100.00
24486;BME280;13449;49.374;8.584;2023-02-16T08:17:34;101699.03;;;0.64;100.00
24486;BME280;13449;49.374;8.584;2023-02-16T08:20:01;101704.31;;;0.66;100.00
24486;BME280;13449;49.374;8.584;2023-02-16T08:22:28;101708.06;;;0.77;100.00
24486;BME280;13449;49.374;8.584;2023-02-16T08:24:56;101699.16;;;0.77;100.00
24486;BME280;13449;49.374;8.584;2023-02-16T08:27:22;101707.81;;;0.82;100.00
24486;BME280;13449;49.374;8.584;2023-02-16T08:29:50;101706.28;;;0.92;100.00
24486;BME280;13449;49.374;8.584;2023-02-16T08:32:16;101706.28;;;0.92;100.00
24486;BME280;13449;49.374;8.584;2023-02-16T08:34:43;101703.03;;;1.01;100.00
24486;BME280;13449;49.374;8.584;2023-02-16T08:37:11;101699.97;;;1.07;100.00
24486;BME280;13449;49.374;8.584;2023-02-16T08:39:38;101696.00;;;1.13;100.00
24486;BME280;13449;49.374;8.584;2023-02-16T08:42:05;101693.91;;;1.18;100.00
24486;BME280;13449;49.374;8.584;2023-02-16T08:44:32;101703.41;;;1.23;100.00
24486;BME280;13449;49.374;8.584;2023-02-16T08:46:59;101703.91;;;1.16;100.00
24486;BME280;13449;49.374;8.584;2023-02-16T08:49:26;101708.13;;;1.20;100.00
24486;BME280;13449;49.374;8.584;2023-02-16T08:51:54;101702.06;;;1.16;100.00
24486;BME280;13449;49.374;8.584;2023-02-16T08:54:26;101715.88;;;1.24;100.00
24486;BME280;13449;49.374;8.584;2023-02-16T08:56:56;101713.88;;;1.42;100.00
24486;BME280;13449;49.374;8.584;2023-02-16T08:59:24;101712.72;;;1.46;100.00
24486;BME280;13449;49.374;8.584;2023-02-16T09:01:54;101716.06;;;1.50;100.00
24486;BME280;13449;49.374;8.584;2023-02-16T09:04:23;101718.34;;;1.56;100.00
24486;BME280;13449;49.374;8.584;2023-02-16T09:06:57;101712.78;;;1.59;100.00
24486;BME280;13449;49.374;8.584;2023-02-16T09:09:25;101704.88;;;1.70;100.00
24486;BME280;13449;49.374;8.584;2023-02-16T09:11:52;101703.84;;;1.58;100.00
24486;BME280;13449;49.374;8.584;2023-02-16T09:14:21;101700.88;;;1.63;100.00
24486;BME280;13449;49.374;8.584;2023-02-16T09:16:48;101693.84;;;1.74;100.00
24486;BME280;13449;49.374;8.584;2023-02-16T09:19:18;101694.84;;;1.86;100.00
24486;BME280;13449;49.374;8.584;2023-02-16T09:21:46;101702.22;;;1.97;100.00
24486;BME280;13449;49.374;8.584;2023-02-16T09:24:13;101711.50;;;2.05;100.00
24486;BME280;13449;49.374;8.584;2023-02-16T09:26:41;101709.94;;;2.15;100.00
24486;BME280;13449;49.374;8.584;2023-02-16T09:29:09;101708.69;;;2.21;100.00
24486;BME280;13449;49.374;8.584;2023-02-16T09:31:37;101708.59;;;2.35;100.00
24486;BME280;13449;49.374;8.584;2023-02-16T09:34:19;101710.78;;;2.42;100.00
24486;BME280;13449;49.374;8.584;2023-02-16T09:36:47;101707.44;;;2.52;100.00
24486;BME280;13449;49.374;8.584;2023-02-16T09:39:15;101704.69;;;2.66;100.00
24486;BME280;13449;49.374;8.584;2023-02-16T09:44:40;101697.81;;;2.87;100.00
24486;BME280;13449;49.374;8.584;2023-02-16T09:47:21;101709.88;;;2.94;100.00
24486;BME280;13449;49.374;8.584;2023-02-16T09:49:50;101714.00;;;3.00;100.00
24486;BME280;13449;49.374;8.584;2023-02-16T09:55:18;101705.03;;;3.24;100.00
24486;BME280;13449;49.374;8.584;2023-02-16T10:00:48;101709.75;;;3.46;100.00
24486;BME280;13449;49.374;8.584;2023-02-16T10:08:43;101686.69;;;3.78;100.00
24486;BME280;13449;49.374;8.584;2023-02-16T10:11:22;101686.97;;;3.86;100.00
24486;BME280;13449;49.374;8.584;2023-02-16T10:20:00;101675.09;;;4.13;100.00
24486;BME280;13449;49.374;8.584;2023-02-16T10:22:40;101669.25;;;4.19;100.00
24486;BME280;13449;49.374;8.584;2023-02-16T10:25:14;101661.94;;;4.32;100.00
24486;BME280;13449;49.374;8.584;2023-02-16T10:27:50;101661.50;;;4.49;100.00
24486;BME280;13449;49.374;8.584;2023-02-16T10:30:21;101666.44;;;4.55;100.00
24486;BME280;13449;49.374;8.584;2023-02-16T10:32:58;101662.03;;;4.65;100.00
24486;BME280;13449;49.374;8.584;2023-02-16T10:38:37;101660.84;;;4.92;100.00
24486;BME280;13449;49.374;8.584;2023-02-16T10:43:52;101665.66;;;5.21;100.00
24486;BME280;13449;49.374;8.584;2023-02-16T10:46:24;101663.09;;;5.31;96.85
24486;BME280;13449;49.374;8.584;2023-02-16T10:48:53;101658.03;;;5.49;99.02
24486;BME280;13449;49.374;8.584;2023-02-16T10:51:24;101654.44;;;5.70;97.71
24486;BME280;13449;49.374;8.584;2023-02-16T10:53:58;101660.56;;;5.83;95.05
24486;BME280;13449;49.374;8.584;2023-02-16T10:56:31;101659.69;;;6.05;95.33
24486;BME280;13449;49.374;8.584;2023-02-16T10:59:15;101654.44;;;6.24;95.08
24486;BME280;13449;49.374;8.584;2023-02-16T11:01:46;101647.78;;;6.49;93.34
24486;BME280;13449;49.374;8.584;2023-02-16T11:04:39;101656.88;;;6.59;89.07
24486;BME280;13449;49.374;8.584;2023-02-16T11:09:37;101641.09;;;6.95;89.11
24486;BME280;13449;49.374;8.584;2023-02-16T11:14:53;101636.25;;;7.19;88.57
24486;BME280;13449;49.374;8.584;2023-02-16T11:17:22;101635.56;;;7.26;86.51
24486;BME280;13449;49.374;8.584;2023-02-16T11:19:57;101626.34;;;7.48;85.68
24486;BME280;13449;49.374;8.584;2023-02-16T11:24:56;101639.88;;;7.88;82.05
24486;BME280;13449;49.374;8.584;2023-02-16T11:27:27;101623.59;;;7.98;82.74
24486;BME280;13449;49.374;8.584;2023-02-16T11:30:14;101607.59;;;8.14;83.37
24486;BME280;13449;49.374;8.584;2023-02-16T11:32:49;101606.59;;;8.15;82.20
24486;BME280;13449;49.374;8.584;2023-02-16T11:35:16;101596.88;;;8.12;82.15
24486;BME280;13449;49.374;8.584;2023-02-16T11:37:44;101604.59;;;8.17;81.52
24486;BME280;13449;49.374;8.584;2023-02-16T11:40:32;101592.44;;;8.21;80.50
24486;BME280;13449;49.374;8.584;2023-02-16T11:43:00;101595.06;;;8.32;81.18
24486;BME280;13449;49.374;8.584;2023-02-16T11:45:31;101587.31;;;8.37;80.69
24486;BME280;13449;49.374;8.584;2023-02-16T11:51:00;101575.25;;;8.59;79.70
24486;BME280;13449;49.374;8.584;2023-02-16T11:53:34;101566.91;;;8.80;79.28
24486;BME280;13449;49.374;8.584;2023-02-16T11:56:21;101576.44;;;8.93;79.64
24486;BME280;13449;49.374;8.584;2023-02-16T11:59:21;101571.25;;;9.00;78.23
24486;BME280;13449;49.374;8.584;2023-02-16T12:24:26;101553.28;;;9.89;76.10
24486;BME280;13449;49.374;8.584;2023-02-16T12:26:59;101558.25;;;10.11;74.64
24486;BME280;13449;49.374;8.584;2023-02-16T12:29:49;101550.28;;;10.35;75.26
24486;BME280;13449;49.374;8.584;2023-02-16T12:32:32;101542.44;;;10.58;74.28
24486;BME280;13449;49.374;8.584;2023-02-16T12:35:16;101545.09;;;10.68;73.25
24486;BME280;13449;49.374;8.584;2023-02-16T12:37:57;101531.69;;;10.82;74.49
24486;BME280;13449;49.374;8.584;2023-02-16T12:45:41;101543.72;;;11.31;71.38
24486;BME280;13449;49.374;8.584;2023-02-16T12:48:34;101556.56;;;11.55;69.46
24486;BME280;13449;49.374;8.584;2023-02-16T12:51:09;101540.44;;;11.70;69.69
24486;BME280;13449;49.374;8.584;2023-02-16T12:53:45;101568.13;;;11.75;66.52
24486;BME280;13449;49.374;8.584;2023-02-16T12:56:22;101541.81;;;11.82;68.13
24486;BME280;13449;49.374;8.584;2023-02-16T12:58:59;101516.56;;;11.88;68.99
24486;BME280;13449;49.374;8.584;2023-02-16T13:01:32;101545.44;;;11.90;67.14
24486;BME280;13449;49.374;8.584;2023-02-16T13:04:20;101535.53;;;11.97;67.22
24486;BME280;13449;49.374;8.584;2023-02-16T13:06:56;101558.44;;;12.13;65.65
24486;BME280;13449;49.374;8.584;2023-02-16T13:09:48;101545.13;;;12.26;64.71
24486;BME280;13449;49.374;8.584;2023-02-16T13:12:34;101577.41;;;12.38;62.58
24486;BME280;13449;49.374;8.584;2023-02-16T13:15:09;101572.31;;;12.51;63.33
24486;BME280;13449;49.374;8.584;2023-02-16T13:17:48;101535.00;;;12.58;65.37
24486;BME280;13449;49.374;8.584;2023-02-16T13:20:20;101558.28;;;12.63;62.43
24486;BME280;13449;49.374;8.584;2023-02-16T13:33:51;101526.59;;;12.76;62.87
24486;BME280;13449;49.374;8.584;2023-02-16T13:44:38;101539.44;;;12.68;60.22
24486;BME280;13449;49.374;8.584;2023-02-16T13:47:14;101531.56;;;12.65;60.87
24486;BME280;13449;49.374;8.584;2023-02-16T13:49:42;101519.97;;;12.63;60.78
24486;BME280;13449;49.374;8.584;2023-02-16T13:52:35;101550.56;;;12.58;58.24
24486;BME280;13449;49.374;8.584;2023-02-16T13:55:06;101533.63;;;12.63;59.36
24486;BME280;13449;49.374;8.584;2023-02-16T14:00:36;101539.09;;;12.71;57.74
24486;BME280;13449;49.374;8.584;2023-02-16T14:03:55;101510.16;;;12.84;59.91
24486;BME280;13449;49.374;8.584;2023-02-16T14:14:28;101518.47;;;13.07;57.83
24486;BME280;13449;49.374;8.584;2023-02-16T14:22:28;101511.25;;;13.06;58.83
24486;BME280;13449;49.374;8.584;2023-02-16T14:24:59;101521.56;;;13.04;57.52
24486;BME280;13449;49.374;8.584;2023-02-16T14:30:44;101499.84;;;12.86;58.00
24486;BME280;13449;49.374;8.584;2023-02-16T14:38:42;101449.47;;;12.65;59.55
24486;BME280;13449;49.374;8.584;2023-02-16T14:41:32;101443.34;;;12.63;60.30
24486;BME280;13449;49.374;8.584;2023-02-16T14:46:59;101479.41;;;12.66;59.18
24486;BME280;13449;49.374;8.584;2023-02-16T14:52:43;101448.13;;;12.52;60.46
24486;BME280;13449;49.374;8.584;2023-02-16T14:55:42;101474.81;;;12.50;58.80
24486;BME280;13449;49.374;8.584;2023-02-16T14:58:22;101463.03;;;12.42;59.73
24486;BME280;13449;49.374;8.584;2023-02-16T15:01:16;101440.00;;;12.28;61.90
24486;BME280;13449;49.374;8.584;2023-02-16T15:03:46;101453.84;;;12.27;60.90
24486;BME280;13449;49.374;8.584;2023-02-16T15:06:41;101446.50;;;12.19;60.45
24486;BME280;13449;49.374;8.584;2023-02-16T15:09:18;101445.47;;;12.12;60.67
24486;BME280;13449;49.374;8.584;2023-02-16T15:17:33;101439.34;;;12.02;60.12
24486;BME280;13449;49.374;8.584;2023-02-16T15:20:07;101431.84;;;11.96;61.08
24486;BME280;13449;49.374;8.584;2023-02-16T15:22:36;101430.47;;;11.92;60.85
24486;BME280;13449;49.374;8.584;2023-02-16T15:25:21;101414.75;;;11.78;63.31
24486;BME280;13449;49.374;8.584;2023-02-16T15:27:57;101413.22;;;11.75;62.56
24486;BME280;13449;49.374;8.584;2023-02-16T15:30:31;101396.63;;;11.69;63.61
24486;BME280;13449;49.374;8.584;2023-02-16T15:33:04;101389.44;;;11.59;63.84
24486;BME280;13449;49.374;8.584;2023-02-16T15:35:36;101402.25;;;11.59;63.51
24486;BME280;13449;49.374;8.584;2023-02-16T15:40:40;101418.97;;;11.48;63.69
24486;BME280;13449;49.374;8.584;2023-02-16T15:48:41;101392.66;;;11.23;65.11
24486;BME280;13449;49.374;8.584;2023-02-16T15:51:12;101384.28;;;11.16;65.52